Atwater, California
Current Conditions -  °F | °C
As of 6:45 AM on Wednesday 22 Oct 2014 (Local Time) from KMER Reporting Station
Broken Clouds Broken Clouds  
Wind Chill:   Ceiling: 18000
Heat Index:   Visibility: 10mi
Dew Point:   Wind: 3mph
Humidity: 100%   Direction: NA
Pressure: 30.03"   Gusts: NA
Location:  37.35°N, 120.6°W
Report Text: KMER 221345Z VRB03KT 10SM BKN180 09/09 A3003
Loading
Personal Weather Stations






























Interactive Weather Map New forecast layout! Learn more

10-Day Weather Forecast

Advertisements
Track Severe Weather on mobile